createdAt,value
2023-11-25T00:00:02.253Z,100.00
2023-11-25T00:03:05.350Z,100.00
2023-11-25T00:06:07.796Z,100.00
2023-11-25T00:09:17.981Z,100.00
2023-11-25T00:12:21.724Z,100.00
2023-11-25T00:15:27.040Z,100.00
2023-11-25T00:18:30.369Z,100.00
2023-11-25T00:21:33.478Z,100.00
2023-11-25T00:24:37.433Z,100.00
2023-11-25T00:27:40.328Z,100.00
2023-11-25T00:30:43.094Z,100.00
2023-11-25T00:33:46.262Z,100.00
2023-11-25T00:36:48.519Z,100.00
2023-11-25T00:39:50.857Z,100.00
2023-11-25T00:42:53.688Z,100.00
2023-11-25T00:45:56.196Z,100.00
2023-11-25T00:48:59.924Z,100.00
2023-11-25T00:52:02.215Z,100.00
2023-11-25T00:55:06.576Z,100.00
2023-11-25T00:58:09.107Z,100.00
2023-11-25T01:01:11.698Z,100.00
2023-11-25T01:04:14.117Z,100.00
2023-11-25T01:07:19.484Z,100.00
2023-11-25T01:10:22.131Z,100.00
2023-11-25T01:13:24.487Z,100.00
2023-11-25T01:16:26.824Z,100.00
2023-11-25T01:19:29.775Z,100.00
2023-11-25T01:22:32.369Z,100.00
2023-11-25T01:25:35.009Z,100.00
2023-11-25T01:28:38.729Z,100.00
2023-11-25T01:31:41.970Z,100.00
2023-11-25T01:34:45.104Z,100.00
2023-11-25T01:37:47.697Z,100.00
2023-11-25T01:40:50.403Z,100.00
2023-11-25T01:43:52.603Z,100.00
2023-11-25T01:46:55.330Z,100.00
2023-11-25T01:49:58.778Z,100.00
2023-11-25T01:53:01.413Z,100.00
2023-11-25T01:56:04.018Z,100.00
2023-11-25T01:59:08.270Z,100.00
2023-11-25T02:02:12.529Z,100.00
2023-11-25T02:05:15.211Z,100.00
2023-11-25T02:08:18.570Z,100.00
2023-11-25T02:11:21.184Z,100.00
2023-11-25T02:14:24.625Z,100.00
2023-11-25T02:17:27.091Z,100.00
2023-11-25T02:20:34.327Z,100.00
2023-11-25T02:23:36.960Z,100.00
2023-11-25T02:26:40.262Z,100.00
2023-11-25T02:29:42.873Z,100.00
2023-11-25T02:32:45.409Z,100.00
2023-11-25T02:35:50.662Z,100.00
2023-11-25T02:38:53.193Z,100.00
2023-11-25T02:41:55.798Z,100.00
2023-11-25T02:44:58.241Z,100.00
2023-11-25T02:48:01.287Z,100.00
2023-11-25T02:51:03.990Z,100.00
2023-11-25T02:54:07.299Z,100.00
2023-11-25T02:57:09.578Z,100.00
2023-11-25T03:00:25.305Z,100.00
2023-11-25T03:03:29.018Z,100.00
2023-11-25T03:06:32.352Z,100.00
2023-11-25T03:09:35.172Z,100.00
2023-11-25T03:12:38.235Z,100.00
2023-11-25T03:15:41.172Z,100.00
2023-11-25T03:18:43.443Z,100.00
2023-11-25T03:21:45.712Z,100.00
2023-11-25T03:24:48.157Z,100.00
2023-11-25T03:27:50.705Z,100.00
2023-11-25T03:30:53.266Z,100.00
2023-11-25T03:33:55.673Z,100.00
2023-11-25T03:40:55.049Z,100.00
2023-11-25T03:43:57.570Z,100.00
2023-11-25T03:46:59.911Z,100.00
2023-11-25T03:50:02.604Z,100.00
2023-11-25T03:53:05.355Z,100.00
2023-11-25T03:56:08.368Z,100.00
2023-11-25T03:59:10.637Z,100.00
2023-11-25T04:02:12.917Z,100.00
2023-11-25T04:05:17.769Z,100.00
2023-11-25T04:08:20.282Z,100.00
2023-11-25T04:11:22.891Z,100.00
2023-11-25T04:14:27.170Z,100.00
2023-11-25T04:17:29.375Z,100.00
2023-11-25T04:20:34.864Z,100.00
2023-11-25T04:23:37.684Z,100.00
2023-11-25T04:26:42.316Z,100.00
2023-11-25T04:29:44.943Z,100.00
2023-11-25T04:32:49.051Z,100.00
2023-11-25T04:35:52.834Z,100.00
2023-11-25T04:38:57.336Z,100.00
2023-11-25T04:41:59.768Z,100.00
2023-11-25T04:45:02.214Z,100.00
2023-11-25T04:48:05.169Z,100.00
2023-11-25T04:51:07.894Z,100.00
2023-11-25T04:54:10.575Z,100.00
2023-11-25T04:57:12.806Z,100.00
2023-11-25T05:00:16.401Z,100.00
2023-11-25T05:03:19.163Z,100.00
2023-11-25T05:06:21.700Z,100.00
2023-11-25T05:09:27.360Z,100.00
2023-11-25T05:12:29.960Z,100.00
2023-11-25T05:15:32.122Z,100.00
2023-11-25T05:18:34.380Z,100.00
2023-11-25T05:21:37.199Z,100.00
2023-11-25T05:24:39.845Z,100.00
2023-11-25T05:27:42.038Z,100.00
2023-11-25T05:30:44.641Z,100.00
2023-11-25T05:33:46.801Z,100.00
2023-11-25T05:36:48.949Z,100.00
2023-11-25T05:39:51.758Z,100.00
2023-11-25T05:42:58.821Z,100.00
2023-11-25T05:46:01.295Z,100.00
2023-11-25T05:49:05.119Z,100.00
2023-11-25T05:52:07.663Z,100.00
2023-11-25T05:55:10.532Z,100.00
2023-11-25T05:58:14.678Z,100.00
2023-11-25T06:01:17.684Z,100.00
2023-11-25T06:04:22.033Z,100.00
2023-11-25T06:07:25.481Z,100.00
2023-11-25T06:10:28.011Z,100.00
2023-11-25T06:13:30.789Z,100.00
2023-11-25T06:16:35.295Z,100.00
2023-11-25T06:19:44.149Z,100.00
2023-11-25T06:22:46.651Z,100.00
2023-11-25T06:25:48.956Z,100.00
2023-11-25T06:28:51.265Z,100.00
2023-11-25T06:31:53.806Z,100.00
2023-11-25T06:34:58.335Z,100.00
2023-11-25T06:38:00.749Z,100.00
2023-11-25T06:41:03.322Z,100.00
2023-11-25T06:44:05.842Z,100.00
2023-11-25T06:47:08.250Z,100.00
2023-11-25T06:50:12.976Z,100.00
2023-11-25T06:53:15.184Z,100.00
2023-11-25T06:56:21.049Z,100.00
2023-11-25T06:59:23.517Z,100.00
2023-11-25T07:02:28.490Z,100.00
2023-11-25T07:05:32.012Z,100.00
2023-11-25T07:08:34.615Z,100.00
2023-11-25T07:11:38.617Z,100.00
2023-11-25T07:14:41.493Z,100.00
2023-11-25T07:17:44.085Z,100.00
2023-11-25T07:20:48.076Z,100.00
2023-11-25T07:23:50.598Z,100.00
2023-11-25T07:26:55.970Z,100.00
2023-11-25T07:30:02.472Z,100.00
2023-11-25T07:33:05.314Z,100.00
2023-11-25T07:36:08.214Z,100.00
2023-11-25T07:39:10.346Z,100.00
2023-11-25T07:42:12.493Z,100.00
2023-11-25T07:45:15.172Z,100.00
2023-11-25T07:48:17.573Z,100.00
2023-11-25T07:51:20.187Z,100.00
2023-11-25T07:54:22.564Z,100.00
2023-11-25T07:57:25.753Z,100.00
2023-11-25T08:00:28.184Z,100.00
2023-11-25T08:03:30.557Z,100.00
2023-11-25T08:06:33.124Z,100.00
2023-11-25T08:09:35.624Z,100.00
2023-11-25T08:12:37.786Z,100.00
2023-11-25T08:15:40.346Z,100.00
2023-11-25T08:18:45.701Z,100.00
2023-11-25T08:21:49.857Z,100.00
2023-11-25T08:24:56.452Z,100.00
2023-11-25T08:27:58.870Z,100.00
2023-11-25T08:31:01.316Z,100.00
2023-11-25T08:34:05.701Z,100.00
2023-11-25T08:37:09.291Z,100.00
2023-11-25T08:40:19.159Z,100.00
2023-11-25T08:43:22.033Z,100.00
2023-11-25T08:46:24.265Z,100.00
2023-11-25T08:49:26.966Z,100.00
2023-11-25T08:52:33.521Z,100.00
2023-11-25T08:55:35.722Z,100.00
2023-11-25T08:58:38.078Z,100.00
2023-11-25T09:01:41.118Z,100.00
2023-11-25T09:04:44.140Z,100.00
2023-11-25T09:07:46.480Z,100.00
2023-11-25T09:10:50.783Z,100.00
2023-11-25T09:13:53.517Z,100.00
2023-11-25T09:16:56.309Z,100.00
2023-11-25T09:19:58.850Z,100.00
2023-11-25T09:23:01.315Z,100.00
2023-11-25T09:26:03.925Z,100.00
2023-11-25T09:29:06.912Z,98.50
2023-11-25T09:32:09.625Z,97.02
2023-11-25T09:35:13.721Z,94.13
2023-11-25T09:38:16.074Z,97.04
2023-11-25T09:41:18.935Z,92.62
2023-11-25T09:44:22.250Z,94.16
2023-11-25T09:47:24.757Z,91.48
2023-11-25T09:50:27.287Z,92.40
2023-11-25T09:53:30.603Z,91.14
2023-11-25T09:56:32.906Z,90.44
2023-11-25T09:59:35.646Z,89.29
2023-11-25T10:02:40.787Z,87.24
2023-11-25T10:05:43.056Z,79.55
2023-11-25T10:08:45.977Z,72.09
2023-11-25T10:11:48.868Z,73.65
2023-11-25T10:14:54.184Z,73.31
2023-11-25T10:17:57.141Z,71.14
2023-11-25T10:21:00.777Z,66.31
2023-11-25T10:24:09.822Z,66.70
2023-11-25T10:27:13.374Z,66.55
2023-11-25T10:30:16.440Z,63.63
2023-11-25T10:33:19.309Z,62.00
2023-11-25T10:36:21.904Z,62.83
2023-11-25T10:39:25.142Z,61.42
2023-11-25T10:42:29.295Z,60.65
2023-11-25T10:45:32.638Z,56.72
2023-11-25T10:48:36.698Z,56.30
2023-11-25T10:51:40.316Z,55.28
2023-11-25T10:54:43.209Z,55.23
2023-11-25T10:57:47.241Z,54.09
2023-11-25T11:00:51.077Z,53.90
2023-11-25T11:04:01.333Z,54.91
2023-11-25T11:07:08.387Z,54.34
2023-11-25T11:10:13.038Z,53.31
2023-11-25T11:13:19.830Z,53.62
2023-11-25T11:16:39.636Z,54.56
2023-11-25T11:19:43.329Z,53.38
2023-11-25T11:22:45.887Z,53.44
2023-11-25T11:25:48.004Z,52.60
2023-11-25T11:29:07.614Z,53.04
2023-11-25T11:32:14.389Z,53.65
2023-11-25T11:35:21.345Z,52.73
2023-11-25T11:38:32.334Z,52.21
2023-11-25T11:41:37.467Z,53.42
2023-11-25T11:44:40.830Z,53.18
2023-11-25T11:47:49.204Z,53.61
2023-11-25T11:50:56.015Z,53.10
2023-11-25T11:54:22.980Z,52.97
2023-11-25T11:57:25.416Z,53.61
2023-11-25T12:00:28.511Z,54.42
2023-11-25T12:03:32.217Z,55.06
2023-11-25T12:06:35.632Z,55.37
2023-11-25T12:09:38.579Z,55.46
2023-11-25T12:12:42.734Z,55.58
2023-11-25T12:15:44.890Z,55.93
2023-11-25T12:18:47.389Z,55.88
2023-11-25T12:21:50.344Z,55.57
2023-11-25T12:24:52.847Z,55.39
2023-11-25T12:28:15.470Z,54.91
2023-11-25T12:31:17.855Z,54.77
2023-11-25T12:34:20.831Z,55.00
2023-11-25T12:37:23.170Z,55.48
2023-11-25T12:40:26.390Z,54.75
2023-11-25T12:43:29.379Z,54.53
2023-11-25T12:46:32.358Z,54.77
2023-11-25T12:49:35.757Z,54.59
2023-11-25T12:52:38.151Z,55.11
2023-11-25T12:55:45.909Z,55.04
2023-11-25T12:58:49.085Z,55.61
2023-11-25T13:01:52.302Z,55.97
2023-11-25T13:04:55.809Z,56.08
2023-11-25T13:07:58.942Z,56.98
2023-11-25T13:11:05.256Z,57.08
2023-11-25T13:14:07.615Z,56.75
2023-11-25T13:17:10.278Z,56.29
2023-11-25T13:20:12.917Z,57.05
2023-11-25T13:23:15.791Z,57.32
2023-11-25T13:26:19.097Z,57.92
2023-11-25T13:29:21.248Z,58.64
2023-11-25T13:32:23.924Z,58.67
2023-11-25T13:35:26.149Z,58.81
2023-11-25T13:38:28.683Z,58.87
2023-11-25T13:41:31.131Z,59.47
2023-11-25T13:44:33.529Z,59.52
2023-11-25T13:47:36.036Z,60.08
2023-11-25T13:50:39.180Z,60.47
2023-11-25T13:53:41.690Z,60.56
2023-11-25T13:56:44.267Z,60.58
2023-11-25T13:59:46.791Z,60.50
2023-11-25T14:02:52.625Z,60.60
2023-11-25T14:05:56.762Z,60.63
2023-11-25T14:09:00.330Z,60.91
2023-11-25T14:12:04.234Z,60.12
2023-11-25T14:15:11.224Z,60.83
2023-11-25T14:18:13.492Z,61.23
2023-11-25T14:21:16.021Z,62.18
2023-11-25T14:24:18.478Z,62.22
2023-11-25T14:27:21.212Z,62.37
2023-11-25T14:30:30.005Z,61.94
2023-11-25T14:33:32.320Z,62.57
2023-11-25T14:36:34.707Z,63.17
2023-11-25T14:39:44.313Z,63.81
2023-11-25T14:42:50.428Z,64.52
2023-11-25T14:45:52.604Z,65.16
2023-11-25T14:48:54.811Z,65.14
2023-11-25T14:51:57.375Z,66.02
2023-11-25T14:54:59.506Z,66.73
2023-11-25T14:58:02.076Z,69.35
2023-11-25T15:01:04.247Z,70.23
2023-11-25T15:04:07.364Z,71.33
2023-11-25T15:07:10.263Z,72.31
2023-11-25T15:10:13.214Z,73.38
2023-11-25T15:13:18.820Z,74.46
2023-11-25T15:16:21.000Z,76.32
2023-11-25T15:19:24.675Z,77.78
2023-11-25T15:22:28.621Z,78.56
2023-11-25T15:25:34.064Z,78.79
2023-11-25T15:28:36.362Z,80.65
2023-11-25T15:31:41.136Z,81.66
2023-11-25T15:34:43.442Z,83.02
2023-11-25T15:37:47.864Z,83.41
2023-11-25T15:40:50.178Z,84.97
2023-11-25T15:43:52.413Z,85.00
2023-11-25T15:46:55.745Z,85.85
2023-11-25T15:49:58.094Z,85.80
2023-11-25T15:53:00.720Z,86.07
2023-11-25T15:56:03.828Z,86.51
2023-11-25T15:59:07.762Z,86.83
2023-11-25T16:02:10.873Z,87.03
2023-11-25T16:05:16.916Z,87.16
2023-11-25T16:08:19.629Z,87.48
2023-11-25T16:11:21.886Z,87.54
2023-11-25T16:14:24.545Z,87.28
2023-11-25T16:17:27.678Z,88.18
2023-11-25T16:20:33.135Z,88.17
2023-11-25T16:23:38.932Z,89.00
2023-11-25T16:26:42.771Z,89.45
2023-11-25T16:29:45.715Z,89.95
2023-11-25T16:32:48.972Z,91.26
2023-11-25T16:35:51.972Z,90.38
2023-11-25T16:38:54.772Z,91.84
2023-11-25T16:41:57.096Z,91.98
2023-11-25T16:44:59.667Z,93.12
2023-11-25T16:48:02.464Z,93.57
2023-11-25T16:51:05.617Z,92.89
2023-11-25T16:54:08.182Z,93.18
2023-11-25T16:57:10.777Z,93.92
2023-11-25T17:00:13.579Z,94.19
2023-11-25T17:03:15.876Z,95.17
2023-11-25T17:06:18.113Z,95.75
2023-11-25T17:09:20.925Z,96.05
2023-11-25T17:12:23.480Z,96.45
2023-11-25T17:15:26.171Z,96.65
2023-11-25T17:18:29.313Z,97.30
2023-11-25T17:21:31.846Z,97.93
2023-11-25T17:24:36.216Z,98.48
2023-11-25T17:27:39.031Z,98.98
2023-11-25T17:30:41.374Z,99.44
2023-11-25T17:33:43.584Z,100.00
2023-11-25T17:36:47.925Z,100.00
2023-11-25T17:39:50.900Z,100.00
2023-11-25T17:42:53.508Z,100.00
2023-11-25T17:45:56.915Z,100.00
2023-11-25T17:48:59.874Z,100.00
2023-11-25T17:52:02.799Z,100.00
2023-11-25T17:55:07.357Z,100.00
2023-11-25T17:58:09.877Z,100.00
2023-11-25T18:01:13.429Z,100.00
2023-11-25T18:04:15.815Z,100.00
2023-11-25T18:07:18.419Z,100.00
2023-11-25T18:10:21.065Z,100.00
2023-11-25T18:13:24.268Z,100.00
2023-11-25T18:16:27.205Z,100.00
2023-11-25T18:19:29.578Z,100.00
2023-11-25T18:22:31.916Z,100.00
2023-11-25T18:25:34.787Z,100.00
2023-11-25T18:28:39.295Z,100.00
2023-11-25T18:31:42.206Z,100.00
2023-11-25T18:34:44.928Z,100.00
2023-11-25T18:37:48.410Z,100.00
2023-11-25T18:40:51.979Z,100.00
2023-11-25T18:43:54.500Z,100.00
2023-11-25T18:46:57.781Z,100.00
2023-11-25T18:50:00.939Z,100.00
2023-11-25T18:53:03.429Z,100.00
2023-11-25T18:56:06.973Z,100.00
2023-11-25T18:59:10.084Z,100.00
2023-11-25T19:02:13.387Z,100.00
2023-11-25T19:05:16.972Z,100.00
2023-11-25T19:08:19.674Z,100.00
2023-11-25T19:11:22.009Z,100.00
2023-11-25T19:14:24.605Z,100.00
2023-11-25T19:17:27.785Z,100.00
2023-11-25T19:20:30.921Z,100.00
2023-11-25T19:23:33.503Z,100.00
2023-11-25T19:26:41.610Z,100.00
2023-11-25T19:29:44.811Z,100.00
2023-11-25T19:32:47.906Z,100.00
2023-11-25T19:35:50.940Z,100.00
2023-11-25T19:38:56.321Z,100.00
2023-11-25T19:42:08.025Z,100.00
2023-11-25T19:45:13.188Z,100.00
2023-11-25T19:48:16.672Z,100.00
2023-11-25T19:51:19.486Z,100.00
2023-11-25T19:54:24.196Z,100.00
2023-11-25T19:57:27.135Z,100.00
2023-11-25T20:00:30.572Z,100.00
2023-11-25T20:03:34.356Z,100.00
2023-11-25T20:06:37.812Z,100.00
2023-11-25T20:09:41.769Z,100.00
2023-11-25T20:12:44.773Z,100.00
2023-11-25T20:15:47.497Z,100.00
2023-11-25T20:18:50.595Z,100.00
2023-11-25T20:21:55.338Z,100.00
2023-11-25T20:25:01.140Z,100.00
2023-11-25T20:28:05.041Z,100.00
2023-11-25T20:31:08.399Z,100.00
2023-11-25T20:34:11.556Z,100.00
2023-11-25T20:37:14.812Z,100.00
2023-11-25T20:40:17.689Z,100.00
2023-11-25T20:43:20.220Z,100.00
2023-11-25T20:46:22.876Z,100.00
2023-11-25T20:49:26.513Z,100.00
2023-11-25T20:52:32.174Z,100.00
2023-11-25T20:55:34.948Z,100.00
2023-11-25T20:58:37.175Z,100.00
2023-11-25T21:01:39.658Z,100.00
2023-11-25T21:04:43.105Z,100.00
2023-11-25T21:07:45.749Z,100.00
2023-11-25T21:10:48.247Z,100.00
2023-11-25T21:13:54.198Z,99.80
2023-11-25T21:16:56.476Z,99.42
2023-11-25T21:20:01.789Z,99.33
2023-11-25T21:23:05.332Z,99.27
2023-11-25T21:26:09.313Z,99.27
2023-11-25T21:29:13.120Z,99.69
2023-11-25T21:32:15.715Z,98.71
2023-11-25T21:35:18.711Z,98.70
2023-11-25T21:38:21.323Z,98.94
2023-11-25T21:41:23.564Z,98.72
2023-11-25T21:44:26.086Z,99.89
2023-11-25T21:47:28.566Z,100.00
2023-11-25T21:50:31.171Z,100.00
2023-11-25T21:53:33.617Z,100.00
2023-11-25T21:56:36.196Z,100.00
2023-11-25T21:59:38.661Z,100.00
2023-11-25T22:02:41.056Z,100.00
2023-11-25T22:05:43.364Z,100.00
2023-11-25T22:08:45.867Z,100.00
2023-11-25T22:11:49.313Z,100.00
2023-11-25T22:14:52.361Z,100.00
2023-11-25T22:17:56.099Z,100.00
2023-11-25T22:20:58.851Z,100.00
2023-11-25T22:24:01.357Z,100.00
2023-11-25T22:27:13.384Z,100.00
2023-11-25T22:30:16.025Z,100.00
2023-11-25T22:33:18.288Z,100.00
2023-11-25T22:36:24.833Z,100.00
2023-11-25T22:39:27.429Z,100.00
2023-11-25T22:42:29.614Z,100.00
2023-11-25T22:45:33.235Z,100.00
2023-11-25T22:48:39.939Z,100.00
2023-11-25T22:51:44.847Z,100.00
2023-11-25T22:54:47.095Z,100.00
2023-11-25T22:57:50.535Z,100.00
2023-11-25T23:00:53.873Z,100.00
2023-11-25T23:03:58.978Z,100.00
2023-11-25T23:07:02.031Z,100.00
2023-11-25T23:10:04.582Z,99.71
2023-11-25T23:13:07.211Z,99.60
2023-11-25T23:16:11.120Z,99.65
2023-11-25T23:19:14.777Z,99.60
2023-11-25T23:22:16.936Z,99.47
2023-11-25T23:25:19.458Z,99.24
2023-11-25T23:28:22.143Z,99.02
2023-11-25T23:31:25.417Z,99.26
2023-11-25T23:34:27.956Z,98.96
2023-11-25T23:37:32.268Z,98.67
2023-11-25T23:40:35.881Z,98.35
2023-11-25T23:43:38.726Z,98.36
2023-11-25T23:46:41.667Z,98.36
2023-11-25T23:49:45.379Z,98.44
2023-11-25T23:52:49.188Z,98.02
2023-11-25T23:55:51.631Z,98.50
2023-11-25T23:58:54.299Z,98.19
